Aviation Digital Data Service (ADDS)

Output produced by METARs form (0523 UTC 16 December 2017)
found at http://www.aviationweather.gov/adds/metars/
 
METAR text: KOAK 160453Z 00000KT 8SM OVC200 11/11 A3004 RMK AO2 SLP171 T01060106
Conditions at: KOAK (OAKLAND , CA, US) observed 0453 UTC 16 December 2017
Temperature: 10.6°C (51°F)
Dewpoint: 10.6°C (51°F) [RH = 100%]
Pressure (altimeter): 30.04 inches Hg (1017.4 mb)
[Sea-level pressure: 1017.1 mb]
Winds: calm
Visibility: 8 miles (13 km)
Ceiling: 20000 feet AGL
Clouds: overcast cloud deck at 20000 feet AGL
Weather: no significant weather observed at this time

METAR text: KOAK 160353Z 28011KT 7SM OVC200 12/11 A3006 RMK AO2 SLP178 T01170111
Conditions at: KOAK (OAKLAND , CA, US) observed 0353 UTC 16 December 2017
Temperature: 11.7°C (53°F)
Dewpoint: 11.1°C (52°F) [RH = 96%]
Pressure (altimeter): 30.06 inches Hg (1018.0 mb)
[Sea-level pressure: 1017.8 mb]
Winds: from the W (280 degrees) at 13 MPH (11 knots; 5.7 m/s)
Visibility: 7 miles (11 km)
Ceiling: 20000 feet AGL
Clouds: overcast cloud deck at 20000 feet AGL
Weather: no significant weather observed at this time

METAR text: KOAK 160253Z 21003KT 7SM OVC200 12/10 A3005 RMK AO2 SLP174 T01170100 58008
Conditions at: KOAK (OAKLAND , CA, US) observed 0253 UTC 16 December 2017
Temperature: 11.7°C (53°F)
Dewpoint: 10.0°C (50°F) [RH = 89%]
Pressure (altimeter): 30.05 inches Hg (1017.7 mb)
[Sea-level pressure: 1017.4 mb]
Winds: from the SSW (210 degrees) at 3 MPH (3 knots; 1.6 m/s)
Visibility: 7 miles (11 km)
Ceiling: 20000 feet AGL
Clouds: overcast cloud deck at 20000 feet AGL
Weather: no significant weather observed at this time

METAR text: KOAK 160153Z 26005KT 5SM HZ SCT200 OVC230 12/09 A3006 RMK AO2 SLP178 T01220089
Conditions at: KOAK (OAKLAND , CA, US) observed 0153 UTC 16 December 2017
Temperature: 12.2°C (54°F)
Dewpoint: 8.9°C (48°F) [RH = 80%]
Pressure (altimeter): 30.06 inches Hg (1018.0 mb)
[Sea-level pressure: 1017.8 mb]
Winds: from the W (260 degrees) at 6 MPH (5 knots; 2.6 m/s)
Visibility: 5 miles (8 km)
Ceiling: 23000 feet AGL
Clouds: scattered clouds at 20000 feet AGL
overcast cloud deck at 23000 feet AGL
Weather: HZ  (haze)

METAR text: KOAK 160053Z 33004KT 6SM HZ SCT200 OVC230 13/07 A3007 RMK AO2 SLP181 T01280072
Conditions at: KOAK (OAKLAND , CA, US) observed 0053 UTC 16 December 2017
Temperature: 12.8°C (55°F)
Dewpoint: 7.2°C (45°F) [RH = 69%]
Pressure (altimeter): 30.07 inches Hg (1018.4 mb)
[Sea-level pressure: 1018.1 mb]
Winds: from the NNW (330 degrees) at 5 MPH (4 knots; 2.1 m/s)
Visibility: 6 miles (10 km)
Ceiling: 23000 feet AGL
Clouds: scattered clouds at 20000 feet AGL
overcast cloud deck at 23000 feet AGL
Weather: HZ  (haze)

METAR text: KOAK 152353Z 32005KT 6SM HZ SCT045 BKN100 OVC200 14/07 A3007 RMK AO2 SLP182 T01390072 10144 20100 56017
Conditions at: KOAK (OAKLAND , CA, US) observed 2353 UTC 15 December 2017
Temperature: 13.9°C (57°F)
Dewpoint: 7.2°C (45°F) [RH = 64%]
Pressure (altimeter): 30.07 inches Hg (1018.4 mb)
[Sea-level pressure: 1018.2 mb]
Winds: from the NW (320 degrees) at 6 MPH (5 knots; 2.6 m/s)
Visibility: 6 miles (10 km)
Ceiling: 10000 feet AGL
Clouds: scattered clouds at 4500 feet AGL
broken clouds at 10000 feet AGL
overcast cloud deck at 20000 feet AGL
Weather: HZ  (haze)

METAR text: KOAK 152253Z 30003KT 5SM HZ SCT045 OVC200 14/08 A3007 RMK AO2 SLP182 T01390083
Conditions at: KOAK (OAKLAND , CA, US) observed 2253 UTC 15 December 2017
Temperature: 13.9°C (57°F)
Dewpoint: 8.3°C (47°F) [RH = 69%]
Pressure (altimeter): 30.07 inches Hg (1018.4 mb)
[Sea-level pressure: 1018.2 mb]
Winds: from the WNW (300 degrees) at 3 MPH (3 knots; 1.6 m/s)
Visibility: 5 miles (8 km)
Ceiling: 20000 feet AGL
Clouds: scattered clouds at 4500 feet AGL
overcast cloud deck at 20000 feet AGL
Weather: HZ  (haze)

METAR text: KOAK 152153Z 28005KT 5SM HZ SCT045 OVC200 14/07 A3008 RMK AO2 SLP187 T01390067
Conditions at: KOAK (OAKLAND , CA, US) observed 2153 UTC 15 December 2017
Temperature: 13.9°C (57°F)
Dewpoint: 6.7°C (44°F) [RH = 62%]
Pressure (altimeter): 30.08 inches Hg (1018.7 mb)
[Sea-level pressure: 1018.7 mb]
Winds: from the W (280 degrees) at 6 MPH (5 knots; 2.6 m/s)
Visibility: 5 miles (8 km)
Ceiling: 20000 feet AGL
Clouds: scattered clouds at 4500 feet AGL
overcast cloud deck at 20000 feet AGL
Weather: HZ  (haze)